Time;durP1;ratioP1;P1;durP2;ratioP2;P2;SDS_P1;SDS_P2;PMS_P1;PMS_P2;Temp;Humidity;BMP_temperature;BMP_pressure;BME280_temperature;BME280_humidity;BME280_pressure;Samples;Min_cycle;Max_cycle;Signal;HPM_P1;HPM_P2
2020/12/05 00:00:44;;;;;;;5.31;4.81;;;;;;;17.78;47.77;97968.02;;;;-54
2020/12/05 00:03:44;;;;;;;5.90;5.02;;;;;;;17.79;47.71;97975.30;;;;-47
2020/12/05 00:06:44;;;;;;;5.68;4.93;;;;;;;17.80;47.68;97971.69;;;;-51
2020/12/05 00:09:44;;;;;;;5.70;4.86;;;;;;;17.80;47.56;97972.69;;;;-49
2020/12/05 00:12:44;;;;;;;5.77;4.96;;;;;;;17.80;47.60;97973.33;;;;-47
2020/12/05 00:15:44;;;;;;;6.01;4.79;;;;;;;17.81;47.63;97971.05;;;;-55
2020/12/05 00:18:44;;;;;;;5.53;4.86;;;;;;;17.80;47.61;97964.98;;;;-55
2020/12/05 00:21:44;;;;;;;5.37;4.87;;;;;;;17.80;47.59;97961.09;;;;-48
2020/12/05 00:24:44;;;;;;;5.44;4.88;;;;;;;17.80;47.55;97960.12;;;;-47
2020/12/05 00:27:44;;;;;;;5.15;4.47;;;;;;;17.81;47.53;97969.20;;;;-51
2020/12/05 00:30:44;;;;;;;5.13;4.63;;;;;;;17.80;47.56;97965.95;;;;-51
2020/12/05 00:33:45;;;;;;;5.29;4.66;;;;;;;17.79;47.53;97964.44;;;;-47
2020/12/05 00:36:44;;;;;;;5.48;4.97;;;;;;;17.78;47.56;97973.36;;;;-47
2020/12/05 00:39:44;;;;;;;5.39;4.78;;;;;;;17.78;47.53;97977.90;;;;-48
2020/12/05 00:42:44;;;;;;;5.49;4.88;;;;;;;17.77;47.60;97984.01;;;;-51
2020/12/05 00:45:45;;;;;;;5.47;4.63;;;;;;;17.77;47.46;97990.73;;;;-51
2020/12/05 00:48:44;;;;;;;5.43;4.87;;;;;;;17.77;47.51;97992.70;;;;-51
2020/12/05 00:51:44;;;;;;;5.41;4.89;;;;;;;17.76;47.50;97990.91;;;;-51
2020/12/05 00:54:44;;;;;;;5.32;4.82;;;;;;;17.75;47.47;98001.97;;;;-51
2020/12/05 00:57:44;;;;;;;4.96;4.46;;;;;;;17.74;47.49;98004.35;;;;-55
2020/12/05 01:00:44;;;;;;;5.40;4.61;;;;;;;17.74;47.49;98001.91;;;;-55
2020/12/05 01:03:44;;;;;;;5.23;4.73;;;;;;;17.73;47.56;98001.12;;;;-48
2020/12/05 01:06:44;;;;;;;5.19;4.68;;;;;;;17.73;47.51;97999.59;;;;-51
2020/12/05 01:09:44;;;;;;;4.92;4.43;;;;;;;17.72;47.56;98003.58;;;;-55
2020/12/05 01:12:44;;;;;;;4.96;4.49;;;;;;;17.72;47.53;98008.38;;;;-54
2020/12/05 01:15:44;;;;;;;5.25;4.59;;;;;;;17.70;47.50;98014.34;;;;-55
2020/12/05 01:18:44;;;;;;;5.29;4.79;;;;;;;17.70;47.49;98016.05;;;;-49
2020/12/05 01:21:44;;;;;;;5.16;4.66;;;;;;;17.69;47.63;98016.06;;;;-49
2020/12/05 01:24:44;;;;;;;5.32;4.82;;;;;;;17.67;47.52;98030.77;;;;-49
2020/12/05 01:27:44;;;;;;;5.25;4.75;;;;;;;17.67;47.64;98035.05;;;;-55
2020/12/05 01:30:44;;;;;;;5.02;4.52;;;;;;;17.67;47.48;98044.78;;;;-49
2020/12/05 01:33:44;;;;;;;5.10;4.61;;;;;;;17.65;47.56;98049.63;;;;-49
2020/12/05 01:36:45;;;;;;;4.91;4.49;;;;;;;17.64;47.58;98053.03;;;;-54
2020/12/05 01:39:44;;;;;;;5.11;4.61;;;;;;;17.63;47.57;98045.13;;;;-55
2020/12/05 01:42:45;;;;;;;5.32;4.82;;;;;;;17.62;47.56;98055.28;;;;-51
2020/12/05 01:45:44;;;;;;;5.02;4.52;;;;;;;17.62;47.60;98063.13;;;;-51
2020/12/05 01:48:44;;;;;;;5.36;4.56;;;;;;;17.61;47.56;98063.07;;;;-51
2020/12/05 01:51:44;;;;;;;5.11;4.61;;;;;;;17.59;47.42;98058.49;;;;-49
2020/12/05 01:54:44;;;;;;;5.01;4.51;;;;;;;17.60;47.54;98067.32;;;;-48
2020/12/05 01:57:44;;;;;;;5.19;4.64;;;;;;;17.58;47.50;98077.14;;;;-48
2020/12/05 02:00:44;;;;;;;5.20;4.70;;;;;;;17.57;47.55;98092.06;;;;-49
2020/12/05 02:03:44;;;;;;;5.28;4.71;;;;;;;17.56;47.53;98096.14;;;;-49
2020/12/05 02:06:44;;;;;;;5.07;4.57;;;;;;;17.56;47.52;98099.21;;;;-49
2020/12/05 02:09:44;;;;;;;5.47;4.50;;;;;;;17.56;47.50;98107.00;;;;-48
2020/12/05 02:12:44;;;;;;;4.93;4.42;;;;;;;17.56;47.64;98117.95;;;;-48
2020/12/05 02:15:45;;;;;;;5.12;4.39;;;;;;;17.54;47.57;98117.08;;;;-48
2020/12/05 02:18:44;;;;;;;5.33;4.83;;;;;;;17.54;47.59;98110.70;;;;-47
2020/12/05 02:21:44;;;;;;;6.63;4.81;;;;;;;17.53;47.64;98110.47;;;;-49
2020/12/05 02:24:44;;;;;;;4.93;4.45;;;;;;;17.53;47.57;98114.17;;;;-49
2020/12/05 02:27:44;;;;;;;4.88;4.43;;;;;;;17.52;47.58;98113.72;;;;-49
2020/12/05 02:30:44;;;;;;;4.64;4.21;;;;;;;17.52;47.59;98126.86;;;;-49
2020/12/05 02:33:44;;;;;;;5.05;4.51;;;;;;;17.51;47.65;98129.36;;;;-47
2020/12/05 02:36:44;;;;;;;5.10;4.60;;;;;;;17.51;47.67;98132.46;;;;-47
2020/12/05 02:39:44;;;;;;;4.91;4.43;;;;;;;17.49;47.63;98139.72;;;;-48
2020/12/05 02:42:44;;;;;;;5.07;4.53;;;;;;;17.49;47.57;98150.63;;;;-51
2020/12/05 02:45:44;;;;;;;5.03;4.51;;;;;;;17.48;47.61;98151.45;;;;-51
2020/12/05 02:48:44;;;;;;;5.13;4.63;;;;;;;17.47;47.67;98157.97;;;;-47
2020/12/05 02:51:44;;;;;;;4.60;4.20;;;;;;;17.47;47.60;98169.07;;;;-47
2020/12/05 02:54:44;;;;;;;4.75;4.29;;;;;;;17.47;47.68;98164.69;;;;-47
2020/12/05 02:57:44;;;;;;;4.81;4.39;;;;;;;17.45;47.72;98161.02;;;;-47
2020/12/05 03:00:44;;;;;;;4.59;4.19;;;;;;;17.44;47.71;98166.12;;;;-47
2020/12/05 03:03:44;;;;;;;4.96;4.46;;;;;;;17.43;47.65;98178.14;;;;-47
2020/12/05 03:06:44;;;;;;;5.03;4.55;;;;;;;17.43;47.69;98195.63;;;;-55
2020/12/05 03:09:44;;;;;;;4.71;4.25;;;;;;;17.43;47.65;98212.06;;;;-54
2020/12/05 03:12:44;;;;;;;5.38;4.88;;;;;;;17.43;47.71;98235.38;;;;-55
2020/12/05 03:15:44;;;;;;;4.66;4.26;;;;;;;17.42;47.65;98248.18;;;;-54
2020/12/05 03:18:44;;;;;;;4.59;4.19;;;;;;;17.41;47.66;98246.50;;;;-54
2020/12/05 03:21:44;;;;;;;5.07;4.57;;;;;;;17.41;47.66;98238.16;;;;-54
2020/12/05 03:24:44;;;;;;;4.91;4.20;;;;;;;17.40;47.59;98238.92;;;;-47
2020/12/05 03:27:44;;;;;;;4.89;4.43;;;;;;;17.39;47.68;98255.22;;;;-47
2020/12/05 03:30:44;;;;;;;4.89;4.49;;;;;;;17.38;47.66;98261.95;;;;-48
2020/12/05 03:33:45;;;;;;;5.24;4.40;;;;;;;17.38;47.66;98250.38;;;;-47
2020/12/05 03:36:44;;;;;;;4.83;4.37;;;;;;;17.37;47.56;98242.22;;;;-48
2020/12/05 03:39:44;;;;;;;4.83;4.41;;;;;;;17.36;47.75;98256.15;;;;-47
2020/12/05 03:42:44;;;;;;;4.94;4.54;;;;;;;17.36;47.70;98278.00;;;;-48
2020/12/05 03:45:44;;;;;;;4.77;4.37;;;;;;;17.35;47.69;98286.13;;;;-51
2020/12/05 03:48:44;;;;;;;4.99;4.49;;;;;;;17.34;47.73;98295.53;;;;-51
2020/12/05 03:51:44;;;;;;;4.65;4.25;;;;;;;17.33;47.68;98310.55;;;;-51
2020/12/05 03:54:44;;;;;;;4.73;4.33;;;;;;;17.34;47.73;98301.61;;;;-49
2020/12/05 03:57:44;;;;;;;4.67;4.15;;;;;;;17.32;47.77;98292.25;;;;-48
2020/12/05 04:00:44;;;;;;;4.82;4.32;;;;;;;17.32;47.73;98291.87;;;;-47
2020/12/05 04:03:44;;;;;;;5.13;4.63;;;;;;;17.30;47.81;98287.75;;;;-47
2020/12/05 04:06:44;;;;;;;4.91;4.41;;;;;;;17.29;47.75;98281.81;;;;-47
2020/12/05 04:09:44;;;;;;;4.97;4.49;;;;;;;17.28;47.69;98270.95;;;;-47
2020/12/05 04:12:44;;;;;;;4.70;4.30;;;;;;;17.29;47.86;98280.20;;;;-49
2020/12/05 04:15:44;;;;;;;4.74;4.34;;;;;;;17.27;47.68;98278.11;;;;-51
2020/12/05 04:18:44;;;;;;;4.95;4.28;;;;;;;17.27;47.86;98282.16;;;;-51
2020/12/05 04:21:44;;;;;;;4.97;4.47;;;;;;;17.27;47.76;98307.00;;;;-51
2020/12/05 04:24:44;;;;;;;4.81;4.31;;;;;;;17.27;47.83;98315.83;;;;-51
2020/12/05 04:27:44;;;;;;;4.48;4.08;;;;;;;17.26;47.86;98325.55;;;;-47
2020/12/05 04:30:44;;;;;;;5.13;4.63;;;;;;;17.26;47.76;98331.47;;;;-47
2020/12/05 04:33:44;;;;;;;4.55;4.15;;;;;;;17.25;47.77;98341.61;;;;-47
2020/12/05 04:36:44;;;;;;;5.71;4.71;;;;;;;17.25;47.83;98327.03;;;;-48
2020/12/05 04:39:44;;;;;;;5.06;4.56;;;;;;;17.25;47.78;98332.37;;;;-51
2020/12/05 04:42:44;;;;;;;4.92;4.42;;;;;;;17.24;47.83;98330.13;;;;-51
2020/12/05 04:45:44;;;;;;;5.06;4.56;;;;;;;17.23;47.82;98327.40;;;;-51
2020/12/05 04:48:44;;;;;;;5.19;4.69;;;;;;;17.23;47.73;98312.91;;;;-51
2020/12/05 04:51:44;;;;;;;4.84;4.34;;;;;;;17.23;47.79;98326.91;;;;-48
2020/12/05 04:54:44;;;;;;;4.75;4.30;;;;;;;17.22;47.75;98326.13;;;;-48
2020/12/05 04:57:44;;;;;;;4.71;4.30;;;;;;;17.22;47.87;98332.42;;;;-47
2020/12/05 05:00:44;;;;;;;4.66;4.26;;;;;;;17.20;47.85;98372.60;;;;-54
2020/12/05 05:03:44;;;;;;;4.56;4.16;;;;;;;17.21;47.75;98379.81;;;;-54
2020/12/05 05:06:44;;;;;;;4.93;4.41;;;;;;;17.20;47.72;98397.63;;;;-51
2020/12/05 05:09:44;;;;;;;4.49;4.09;;;;;;;17.20;47.90;98419.05;;;;-51
2020/12/05 05:12:44;;;;;;;4.63;4.23;;;;;;;17.20;47.83;98443.17;;;;-54
2020/12/05 05:15:44;;;;;;;4.95;4.40;;;;;;;17.20;47.89;98469.00;;;;-54
2020/12/05 05:18:44;;;;;;;4.89;4.39;;;;;;;17.19;47.91;98491.28;;;;-54
2020/12/05 05:21:44;;;;;;;4.86;4.17;;;;;;;17.19;47.89;98497.52;;;;-47
2020/12/05 05:24:44;;;;;;;4.43;4.03;;;;;;;17.17;47.94;98498.67;;;;-47
2020/12/05 05:27:44;;;;;;;4.52;4.12;;;;;;;17.17;47.78;98488.39;;;;-47
2020/12/05 05:30:44;;;;;;;4.80;4.33;;;;;;;17.16;47.90;98476.11;;;;-47
2020/12/05 05:33:44;;;;;;;4.73;4.29;;;;;;;17.15;47.89;98477.73;;;;-47
2020/12/05 05:36:45;;;;;;;4.39;3.98;;;;;;;17.15;47.88;98491.66;;;;-47
2020/12/05 05:39:44;;;;;;;4.71;4.21;;;;;;;17.15;47.91;98495.05;;;;-47
2020/12/05 05:42:44;;;;;;;4.53;4.13;;;;;;;17.14;47.94;98482.05;;;;-48
2020/12/05 05:45:44;;;;;;;4.50;4.10;;;;;;;17.14;47.88;98474.85;;;;-49
2020/12/05 05:48:44;;;;;;;4.25;3.85;;;;;;;17.15;47.93;98463.83;;;;-49
2020/12/05 05:51:44;;;;;;;4.41;4.01;;;;;;;17.14;47.88;98475.48;;;;-48
2020/12/05 05:54:44;;;;;;;4.31;3.91;;;;;;;17.13;47.86;98480.03;;;;-48
2020/12/05 05:57:44;;;;;;;4.53;4.13;;;;;;;17.13;47.92;98484.83;;;;-48
2020/12/05 06:00:44;;;;;;;4.40;4.00;;;;;;;17.11;47.84;98507.74;;;;-51
2020/12/05 06:03:44;;;;;;;4.27;3.87;;;;;;;17.11;47.98;98492.69;;;;-51
2020/12/05 06:06:44;;;;;;;4.18;3.78;;;;;;;17.11;47.91;98501.28;;;;-51
2020/12/05 06:09:44;;;;;;;11.07;4.07;;;;;;;17.14;48.01;98508.34;;;;-58
2020/12/05 06:12:44;;;;;;;8.34;4.69;;;;;;;16.88;46.29;98517.14;;;;-59
2020/12/05 06:15:44;;;;;;;5.67;4.76;;;;;;;16.64;46.02;98534.11;;;;-59
2020/12/05 06:18:44;;;;;;;5.65;4.69;;;;;;;16.51;46.05;98542.77;;;;-60
2020/12/05 06:21:44;;;;;;;5.53;4.81;;;;;;;16.40;46.25;98558.25;;;;-55
2020/12/05 06:24:44;;;;;;;9.94;4.22;;;;;;;16.54;46.97;98572.90;;;;-57
2020/12/05 06:27:44;;;;;;;6.09;3.83;;;;;;;16.61;47.13;98551.20;;;;-55
2020/12/05 06:30:44;;;;;;;7.09;3.63;;;;;;;16.71;47.31;98539.53;;;;-53
2020/12/05 06:33:44;;;;;;;7.13;3.69;;;;;;;16.77;47.46;98554.26;;;;-52
2020/12/05 06:36:44;;;;;;;4.27;3.22;;;;;;;16.84;47.44;98559.92;;;;-53
2020/12/05 06:39:44;;;;;;;6.22;3.33;;;;;;;16.89;47.56;98560.25;;;;-51
2020/12/05 06:42:44;;;;;;;5.85;3.08;;;;;;;16.95;47.74;98570.84;;;;-52
2020/12/05 06:45:44;;;;;;;5.55;3.11;;;;;;;17.02;47.89;98594.81;;;;-51
2020/12/05 06:48:44;;;;;;;3.87;2.77;;;;;;;17.08;47.90;98615.52;;;;-51
2020/12/05 06:51:44;;;;;;;3.63;2.70;;;;;;;17.16;48.03;98622.75;;;;-52
2020/12/05 06:54:44;;;;;;;3.71;2.73;;;;;;;17.22;48.06;98613.84;;;;-52
2020/12/05 06:57:44;;;;;;;2.64;2.44;;;;;;;17.28;48.08;98593.51;;;;-54
2020/12/05 07:00:44;;;;;;;2.77;2.50;;;;;;;17.35;48.19;98608.91;;;;-52
2020/12/05 07:03:44;;;;;;;4.90;2.46;;;;;;;17.40;48.22;98626.79;;;;-52
2020/12/05 07:06:46;;;;;;;2.88;2.49;;;;;;;17.47;48.23;98627.73;;;;-57
2020/12/05 07:09:44;;;;;;;3.61;2.31;;;;;;;17.52;48.19;98638.27;;;;-52
2020/12/05 07:12:44;;;;;;;2.89;2.59;;;;;;;17.57;48.24;98659.00;;;;-55
2020/12/05 07:15:44;;;;;;;3.41;2.45;;;;;;;17.61;47.96;98660.90;;;;-55
2020/12/05 07:18:44;;;;;;;2.53;2.12;;;;;;;17.63;48.10;98643.70;;;;-60
2020/12/05 07:21:44;;;;;;;4.07;2.09;;;;;;;17.66;48.09;98633.84;;;;-58
2020/12/05 07:24:44;;;;;;;2.45;2.02;;;;;;;17.68;48.08;98645.31;;;;-59
2020/12/05 07:27:44;;;;;;;2.37;2.09;;;;;;;17.70;48.05;98657.44;;;;-55
2020/12/05 07:30:44;;;;;;;3.84;2.21;;;;;;;17.73;48.04;98662.57;;;;-55
2020/12/05 07:33:44;;;;;;;2.76;2.29;;;;;;;17.74;47.91;98643.29;;;;-54
2020/12/05 07:36:44;;;;;;;2.31;2.09;;;;;;;17.76;47.93;98659.84;;;;-57
2020/12/05 07:39:44;;;;;;;3.12;2.10;;;;;;;17.78;47.90;98655.22;;;;-55
2020/12/05 07:42:44;;;;;;;4.04;2.19;;;;;;;17.82;47.86;98652.22;;;;-55
2020/12/05 07:45:44;;;;;;;2.31;2.11;;;;;;;17.84;48.00;98642.66;;;;-55
2020/12/05 07:48:44;;;;;;;2.69;2.15;;;;;;;17.87;47.92;98660.84;;;;-55
2020/12/05 07:51:44;;;;;;;2.28;2.08;;;;;;;17.91;47.86;98680.23;;;;-56
2020/12/05 07:54:44;;;;;;;2.53;2.07;;;;;;;17.94;47.96;98680.92;;;;-56
2020/12/05 07:57:44;;;;;;;2.17;1.97;;;;;;;17.97;47.94;98676.42;;;;-58
2020/12/05 08:00:44;;;;;;;3.34;1.90;;;;;;;18.01;47.87;98687.84;;;;-56
2020/12/05 08:03:44;;;;;;;2.54;2.00;;;;;;;18.04;47.97;98694.62;;;;-56
2020/12/05 08:08:44;;;;;;;1.95;1.83;;;;;;;18.10;47.97;98684.41;;;;-57
2020/12/05 08:11:44;;;;;;;3.03;1.90;;;;;;;18.13;47.85;98692.86;;;;-57
2020/12/05 08:14:44;;;;;;;2.14;1.92;;;;;;;18.14;47.93;98690.80;;;;-56
2020/12/05 08:17:44;;;;;;;2.19;1.99;;;;;;;18.18;48.01;98710.70;;;;-56
2020/12/05 08:20:44;;;;;;;2.37;1.87;;;;;;;18.21;47.95;98704.39;;;;-56
2020/12/05 08:23:44;;;;;;;2.67;1.95;;;;;;;18.23;47.91;98721.63;;;;-55
2020/12/05 08:26:44;;;;;;;2.23;1.87;;;;;;;18.26;47.89;98723.05;;;;-56
2020/12/05 08:29:44;;;;;;;2.05;1.83;;;;;;;18.29;47.87;98732.41;;;;-57
2020/12/05 08:32:44;;;;;;;2.14;1.94;;;;;;;18.31;47.81;98734.48;;;;-56
2020/12/05 08:35:44;;;;;;;1.94;1.80;;;;;;;18.32;47.80;98732.57;;;;-55
2020/12/05 08:38:44;;;;;;;2.08;1.89;;;;;;;18.34;47.88;98736.70;;;;-58
2020/12/05 08:41:44;;;;;;;1.97;1.83;;;;;;;18.36;47.83;98740.70;;;;-57
2020/12/05 08:44:44;;;;;;;2.23;1.85;;;;;;;18.37;47.83;98739.80;;;;-57
2020/12/05 08:47:44;;;;;;;2.01;1.87;;;;;;;18.39;47.81;98746.25;;;;-58
2020/12/05 08:50:44;;;;;;;2.02;1.83;;;;;;;18.41;47.86;98745.42;;;;-57
2020/12/05 08:53:44;;;;;;;1.85;1.75;;;;;;;18.42;47.77;98749.05;;;;-58
2020/12/05 08:56:44;;;;;;;2.81;1.87;;;;;;;18.43;47.72;98745.61;;;;-59
2020/12/05 08:59:44;;;;;;;2.02;1.85;;;;;;;18.44;47.78;98755.23;;;;-57
2020/12/05 09:02:44;;;;;;;2.13;1.90;;;;;;;18.46;47.75;98754.57;;;;-55
2020/12/05 09:05:44;;;;;;;2.09;1.90;;;;;;;18.47;47.73;98757.48;;;;-55
2020/12/05 09:08:44;;;;;;;2.05;1.85;;;;;;;18.47;47.73;98753.02;;;;-56
2020/12/05 09:11:44;;;;;;;4.77;1.94;;;;;;;18.52;48.14;98740.92;;;;-53
2020/12/05 09:14:47;;;;;;;3.34;1.93;;;;;;;18.53;48.48;98747.56;;;;-54
2020/12/05 09:17:44;;;;;;;2.19;1.99;;;;;;;18.57;48.70;98755.03;;;;-58
2020/12/05 09:20:44;;;;;;;2.52;1.99;;;;;;;18.61;48.66;98753.91;;;;-58
2020/12/05 09:23:45;;;;;;;2.53;2.02;;;;;;;18.65;48.90;98754.00;;;;-53
2020/12/05 09:26:44;;;;;;;3.30;2.12;;;;;;;18.68;48.74;98749.08;;;;-51
2020/12/05 09:29:44;;;;;;;2.71;1.99;;;;;;;18.72;48.86;98744.64;;;;-51
2020/12/05 09:32:44;;;;;;;2.29;2.07;;;;;;;18.74;48.76;98745.00;;;;-55
2020/12/05 09:35:44;;;;;;;2.59;2.24;;;;;;;18.79;49.02;98745.43;;;;-59
2020/12/05 09:38:44;;;;;;;3.40;2.27;;;;;;;18.80;48.30;98753.61;;;;-59
2020/12/05 09:41:45;;;;;;;3.25;2.11;;;;;;;18.80;48.13;98760.27;;;;-53
2020/12/05 09:44:44;;;;;;;2.93;2.04;;;;;;;18.81;48.08;98765.52;;;;-59
2020/12/05 09:47:44;;;;;;;2.63;2.03;;;;;;;18.81;47.96;98780.69;;;;-53
2020/12/05 09:50:44;;;;;;;2.11;1.85;;;;;;;18.83;48.02;98776.45;;;;-54
2020/12/05 09:53:44;;;;;;;2.08;1.90;;;;;;;18.84;47.94;98784.85;;;;-53
2020/12/05 09:56:44;;;;;;;2.03;1.85;;;;;;;18.85;47.88;98795.38;;;;-53
2020/12/05 09:59:44;;;;;;;2.89;2.06;;;;;;;18.86;47.86;98799.67;;;;-53
2020/12/05 10:02:44;;;;;;;2.34;1.99;;;;;;;18.88;47.87;98792.17;;;;-53
2020/12/05 10:05:44;;;;;;;2.07;1.86;;;;;;;18.89;47.79;98806.36;;;;-53
2020/12/05 10:08:44;;;;;;;2.15;1.95;;;;;;;18.90;47.82;98809.72;;;;-52
2020/12/05 10:11:44;;;;;;;2.07;1.83;;;;;;;18.92;47.80;98809.78;;;;-53
2020/12/05 10:14:44;;;;;;;2.91;1.94;;;;;;;18.94;47.81;98810.25;;;;-53
2020/12/05 10:17:44;;;;;;;2.69;2.05;;;;;;;18.95;47.68;98815.44;;;;-60
2020/12/05 10:20:44;;;;;;;2.18;1.98;;;;;;;18.96;47.71;98791.61;;;;-60
2020/12/05 10:23:44;;;;;;;2.09;1.93;;;;;;;18.97;47.75;98797.76;;;;-60
2020/12/05 10:26:44;;;;;;;2.18;1.98;;;;;;;18.99;47.65;98811.61;;;;-53
2020/12/05 10:29:44;;;;;;;2.20;2.00;;;;;;;19.01;47.60;98805.80;;;;-53
2020/12/05 10:32:44;;;;;;;2.25;2.00;;;;;;;19.05;47.71;98815.00;;;;-59
2020/12/05 10:35:44;;;;;;;2.36;2.02;;;;;;;19.05;47.68;98807.86;;;;-53
2020/12/05 10:38:44;;;;;;;2.17;1.95;;;;;;;19.05;47.62;98817.02;;;;-53
2020/12/05 10:41:44;;;;;;;2.15;1.93;;;;;;;19.06;47.60;98811.80;;;;-60
2020/12/05 10:44:44;;;;;;;2.59;2.00;;;;;;;19.08;47.68;98810.72;;;;-59
2020/12/05 10:47:44;;;;;;;2.50;2.01;;;;;;;19.10;47.54;98821.33;;;;-53
2020/12/05 10:50:44;;;;;;;1.97;1.87;;;;;;;19.10;47.58;98807.92;;;;-53
2020/12/05 10:53:44;;;;;;;2.11;1.90;;;;;;;19.11;47.55;98823.33;;;;-53
2020/12/05 10:56:44;;;;;;;2.23;2.03;;;;;;;19.12;47.55;98844.73;;;;-53
2020/12/05 10:59:44;;;;;;;1.87;1.77;;;;;;;19.13;47.55;98833.52;;;;-53
2020/12/05 11:02:44;;;;;;;2.13;1.94;;;;;;;19.15;47.55;98829.33;;;;-53
2020/12/05 11:05:44;;;;;;;2.10;1.90;;;;;;;19.16;47.54;98825.66;;;;-53
2020/12/05 11:08:44;;;;;;;2.11;1.93;;;;;;;19.17;47.49;98821.51;;;;-59
2020/12/05 11:11:44;;;;;;;2.13;1.93;;;;;;;19.18;47.48;98840.99;;;;-60
2020/12/05 11:14:44;;;;;;;2.10;1.90;;;;;;;19.18;47.48;98826.11;;;;-53
2020/12/05 11:17:44;;;;;;;2.13;1.93;;;;;;;19.20;47.46;98828.94;;;;-53
2020/12/05 11:20:44;;;;;;;1.80;1.70;;;;;;;19.20;47.51;98836.31;;;;-53
2020/12/05 11:23:44;;;;;;;2.32;1.90;;;;;;;19.21;47.45;98842.53;;;;-60
2020/12/05 11:26:45;;;;;;;2.27;2.07;;;;;;;19.22;47.42;98854.63;;;;-59
2020/12/05 11:29:44;;;;;;;2.03;1.87;;;;;;;19.22;47.50;98845.70;;;;-53
2020/12/05 11:32:44;;;;;;;1.94;1.84;;;;;;;19.24;47.47;98842.92;;;;-53
2020/12/05 11:35:44;;;;;;;1.94;1.84;;;;;;;19.25;47.43;98850.19;;;;-59
2020/12/05 11:38:44;;;;;;;2.10;1.90;;;;;;;19.25;47.47;98847.74;;;;-59
2020/12/05 11:41:44;;;;;;;1.89;1.79;;;;;;;19.26;47.46;98846.34;;;;-59
2020/12/05 11:44:44;;;;;;;1.90;1.80;;;;;;;19.27;47.44;98850.31;;;;-59
2020/12/05 11:47:44;;;;;;;1.93;1.83;;;;;;;19.27;47.39;98834.94;;;;-53
2020/12/05 11:50:44;;;;;;;2.07;1.87;;;;;;;19.27;47.38;98833.64;;;;-59
2020/12/05 11:53:44;;;;;;;2.19;1.99;;;;;;;19.28;47.36;98843.31;;;;-59
2020/12/05 11:56:44;;;;;;;1.85;1.75;;;;;;;19.29;47.38;98840.05;;;;-53
2020/12/05 11:59:44;;;;;;;2.06;1.88;;;;;;;19.29;47.40;98841.08;;;;-53
2020/12/05 12:02:44;;;;;;;2.12;1.92;;;;;;;19.30;47.35;98846.94;;;;-59
2020/12/05 12:05:44;;;;;;;2.17;1.97;;;;;;;19.31;47.35;98845.12;;;;-53
2020/12/05 12:08:44;;;;;;;2.18;1.89;;;;;;;19.32;47.31;98855.98;;;;-52
2020/12/05 12:11:44;;;;;;;2.14;1.96;;;;;;;19.33;47.40;98853.27;;;;-53
2020/12/05 12:14:44;;;;;;;2.17;1.97;;;;;;;19.33;47.27;98850.67;;;;-59
2020/12/05 12:17:44;;;;;;;2.36;2.16;;;;;;;19.35;47.33;98849.66;;;;-59
2020/12/05 12:20:44;;;;;;;2.12;1.96;;;;;;;19.36;47.25;98846.02;;;;-53
2020/12/05 12:23:44;;;;;;;2.10;1.90;;;;;;;19.36;47.32;98849.64;;;;-54
2020/12/05 12:26:44;;;;;;;2.17;1.99;;;;;;;19.37;47.22;98853.20;;;;-53
2020/12/05 12:29:44;;;;;;;1.90;1.80;;;;;;;19.38;47.21;98847.09;;;;-53
2020/12/05 12:32:44;;;;;;;2.26;2.06;;;;;;;19.39;47.24;98853.59;;;;-53
2020/12/05 12:35:44;;;;;;;2.26;2.06;;;;;;;19.39;47.25;98853.25;;;;-59
2020/12/05 12:38:44;;;;;;;2.06;1.90;;;;;;;19.40;47.28;98848.75;;;;-53
2020/12/05 12:41:44;;;;;;;2.17;1.97;;;;;;;19.41;47.25;98848.93;;;;-59
2020/12/05 12:44:44;;;;;;;2.31;2.00;;;;;;;19.42;47.23;98840.61;;;;-53
2020/12/05 12:47:57;;;;;;;2.13;1.93;;;;;;;19.43;47.25;98849.84;;;;-53
2020/12/05 12:50:45;;;;;;;1.99;1.84;;;;;;;19.44;47.26;98856.98;;;;-53
2020/12/05 12:53:44;;;;;;;2.22;2.02;;;;;;;19.45;47.19;98847.63;;;;-53
2020/12/05 12:56:44;;;;;;;2.21;2.01;;;;;;;19.47;47.16;98851.09;;;;-53
2020/12/05 12:59:44;;;;;;;2.25;2.05;;;;;;;19.47;47.27;98852.88;;;;-53
2020/12/05 13:02:44;;;;;;;2.29;2.09;;;;;;;19.48;47.17;98846.41;;;;-53
2020/12/05 13:05:44;;;;;;;2.27;2.07;;;;;;;19.49;47.24;98848.19;;;;-59
2020/12/05 13:08:44;;;;;;;2.28;2.08;;;;;;;19.49;47.21;98853.30;;;;-59
2020/12/05 13:11:44;;;;;;;2.18;1.98;;;;;;;19.51;47.20;98854.66;;;;-53
2020/12/05 13:14:44;;;;;;;2.31;2.11;;;;;;;19.51;47.21;98857.16;;;;-59
2020/12/05 13:17:44;;;;;;;2.21;2.01;;;;;;;19.53;47.22;98865.75;;;;-59
2020/12/05 13:20:44;;;;;;;2.68;2.13;;;;;;;19.54;47.25;98877.33;;;;-59
2020/12/05 13:23:44;;;;;;;2.32;2.12;;;;;;;19.55;47.19;98883.97;;;;-60
2020/12/05 13:26:44;;;;;;;2.22;2.02;;;;;;;19.55;47.24;98881.46;;;;-60
2020/12/05 13:29:45;;;;;;;2.21;2.03;;;;;;;19.56;47.19;98879.56;;;;-59
2020/12/05 13:32:44;;;;;;;2.30;2.10;;;;;;;19.57;47.20;98866.72;;;;-53
2020/12/05 13:35:44;;;;;;;2.23;2.03;;;;;;;19.59;47.22;98858.55;;;;-60
2020/12/05 13:38:44;;;;;;;2.51;2.30;;;;;;;19.60;47.14;98853.65;;;;-60
2020/12/05 13:41:44;;;;;;;2.30;2.10;;;;;;;19.61;47.12;98847.38;;;;-59
2020/12/05 13:44:44;;;;;;;2.20;2.00;;;;;;;19.61;47.14;98844.69;;;;-53
2020/12/05 13:47:44;;;;;;;2.32;2.12;;;;;;;19.62;47.16;98857.18;;;;-60
2020/12/05 13:50:44;;;;;;;2.28;2.08;;;;;;;19.63;47.13;98857.98;;;;-53
2020/12/05 13:53:44;;;;;;;2.13;1.97;;;;;;;19.63;47.19;98850.92;;;;-53
2020/12/05 13:56:44;;;;;;;2.52;2.32;;;;;;;19.64;47.10;98846.58;;;;-53
2020/12/05 13:59:44;;;;;;;2.22;2.02;;;;;;;19.64;47.20;98846.76;;;;-60
2020/12/05 14:02:44;;;;;;;2.21;2.01;;;;;;;19.65;47.16;98854.03;;;;-59
2020/12/05 14:05:44;;;;;;;2.38;2.18;;;;;;;19.66;47.16;98846.47;;;;-53
2020/12/05 14:08:44;;;;;;;2.53;2.22;;;;;;;19.66;47.17;98842.25;;;;-53
2020/12/05 14:11:44;;;;;;;2.33;2.13;;;;;;;19.67;47.15;98838.56;;;;-59
2020/12/05 14:14:44;;;;;;;2.45;2.25;;;;;;;19.67;47.20;98828.98;;;;-60
2020/12/05 14:17:44;;;;;;;2.31;2.11;;;;;;;19.67;47.18;98828.33;;;;-59
2020/12/05 14:20:44;;;;;;;2.26;2.07;;;;;;;19.68;47.12;98824.23;;;;-53
2020/12/05 14:23:44;;;;;;;2.29;2.09;;;;;;;19.69;47.18;98825.51;;;;-53
2020/12/05 14:26:44;;;;;;;2.19;1.99;;;;;;;19.70;47.15;98827.13;;;;-60
2020/12/05 14:29:44;;;;;;;11.99;8.53;;;;;;;19.66;46.52;98832.02;;;;-60
2020/12/05 14:32:44;;;;;;;16.92;9.95;;;;;;;19.62;46.53;98838.58;;;;-59
2020/12/05 14:35:44;;;;;;;12.56;8.93;;;;;;;19.63;46.66;98831.27;;;;-53
2020/12/05 14:38:44;;;;;;;10.64;7.19;;;;;;;19.65;46.71;98839.41;;;;-53
2020/12/05 14:41:46;;;;;;;8.03;6.00;;;;;;;19.66;46.83;98845.58;;;;-60
2020/12/05 14:44:44;;;;;;;7.82;5.65;;;;;;;19.68;46.92;98844.14;;;;-59
2020/12/05 14:47:44;;;;;;;7.09;5.29;;;;;;;19.71;46.86;98847.30;;;;-61
2020/12/05 14:50:44;;;;;;;8.51;5.59;;;;;;;19.71;46.97;98853.53;;;;-53
2020/12/05 14:53:44;;;;;;;7.84;5.44;;;;;;;19.71;46.88;98843.30;;;;-52
2020/12/05 14:56:44;;;;;;;7.98;6.27;;;;;;;19.73;46.73;98841.23;;;;-63
2020/12/05 14:59:44;;;;;;;8.62;5.35;;;;;;;19.74;46.81;98840.66;;;;-50
2020/12/05 15:02:44;;;;;;;7.88;5.51;;;;;;;19.74;46.82;98840.64;;;;-63
2020/12/05 15:05:44;;;;;;;7.61;5.45;;;;;;;19.75;46.92;98838.67;;;;-54
2020/12/05 15:08:44;;;;;;;6.49;5.04;;;;;;;19.75;46.89;98841.59;;;;-50
2020/12/05 15:11:44;;;;;;;6.23;4.96;;;;;;;19.77;46.97;98838.88;;;;-50
2020/12/05 15:14:44;;;;;;;6.57;5.02;;;;;;;19.77;46.90;98829.67;;;;-54
2020/12/05 15:17:44;;;;;;;6.12;4.95;;;;;;;19.78;46.92;98827.06;;;;-50
2020/12/05 15:20:44;;;;;;;6.57;4.75;;;;;;;19.79;46.99;98823.77;;;;-50
2020/12/05 15:23:44;;;;;;;5.80;4.76;;;;;;;19.81;46.88;98812.71;;;;-62
2020/12/05 15:26:44;;;;;;;6.71;5.09;;;;;;;19.80;46.96;98809.88;;;;-54
2020/12/05 15:29:44;;;;;;;5.88;4.83;;;;;;;19.81;46.93;98807.42;;;;-55
2020/12/05 15:32:44;;;;;;;6.59;4.71;;;;;;;19.82;46.90;98802.92;;;;-63
2020/12/05 15:35:44;;;;;;;6.67;5.05;;;;;;;19.82;46.97;98811.87;;;;-50
2020/12/05 15:38:44;;;;;;;5.39;4.61;;;;;;;19.83;46.87;98822.27;;;;-50
2020/12/05 15:41:44;;;;;;;6.69;4.73;;;;;;;19.82;46.98;98814.31;;;;-54
2020/12/05 15:44:44;;;;;;;5.87;4.63;;;;;;;19.83;46.90;98824.36;;;;-54
2020/12/05 15:47:44;;;;;;;5.75;4.57;;;;;;;19.83;46.87;98823.80;;;;-63
2020/12/05 15:50:44;;;;;;;6.04;4.66;;;;;;;19.83;46.85;98817.38;;;;-54
2020/12/05 15:53:44;;;;;;;6.42;4.67;;;;;;;19.83;46.91;98825.89;;;;-51
2020/12/05 15:56:44;;;;;;;5.39;4.59;;;;;;;19.84;46.86;98834.84;;;;-63
2020/12/05 15:59:44;;;;;;;6.27;4.39;;;;;;;19.84;46.96;98840.05;;;;-64
2020/12/05 16:02:44;;;;;;;5.06;4.25;;;;;;;19.84;46.91;98833.84;;;;-63
2020/12/05 16:05:44;;;;;;;5.93;4.45;;;;;;;19.85;46.89;98830.08;;;;-63
2020/12/05 16:08:44;;;;;;;5.34;4.28;;;;;;;19.86;46.98;98823.09;;;;-55
2020/12/05 16:11:44;;;;;;;7.62;4.49;;;;;;;19.87;46.57;98833.70;;;;-63
2020/12/05 16:14:44;;;;;;;6.45;4.36;;;;;;;19.87;46.67;98840.85;;;;-50
2020/12/05 16:17:44;;;;;;;6.38;4.45;;;;;;;19.88;46.89;98837.42;;;;-63
2020/12/05 16:20:44;;;;;;;5.93;4.18;;;;;;;19.88;46.87;98842.46;;;;-63
2020/12/05 16:23:44;;;;;;;6.46;4.46;;;;;;;19.88;46.96;98845.95;;;;-50
2020/12/05 16:26:44;;;;;;;5.13;4.39;;;;;;;19.89;46.97;98842.13;;;;-50
2020/12/05 16:29:44;;;;;;;5.08;4.07;;;;;;;19.89;46.89;98841.20;;;;-51
2020/12/05 16:32:44;;;;;;;5.47;4.26;;;;;;;19.91;46.91;98829.00;;;;-52
2020/12/05 16:35:44;;;;;;;5.09;4.17;;;;;;;19.90;47.00;98824.22;;;;-54
2020/12/05 16:38:44;;;;;;;5.41;4.07;;;;;;;19.92;46.88;98824.39;;;;-55
2020/12/05 16:41:44;;;;;;;4.67;3.93;;;;;;;19.92;46.87;98824.72;;;;-52
2020/12/05 16:44:44;;;;;;;4.31;3.79;;;;;;;19.93;46.97;98824.47;;;;-52
2020/12/05 16:47:45;;;;;;;5.69;3.63;;;;;;;19.94;46.97;98832.32;;;;-50
2020/12/05 16:50:44;;;;;;;5.39;3.96;;;;;;;19.95;46.91;98833.95;;;;-51
2020/12/05 16:53:44;;;;;;;4.51;3.97;;;;;;;19.94;46.93;98835.52;;;;-54
2020/12/05 16:56:44;;;;;;;4.83;3.83;;;;;;;19.95;46.84;98833.95;;;;-50